• °C
  • Pobieranie danych...
wx


SEKCJA WYDRUKÓW, pokaż »

METAR EPBY 271330Z 22003KT 4000 -RA BR FEW002 BKN008 02/01 Q0995=

METAR EPGD 271330Z 29005KT 7000 BKN005 02/01 Q0994 =

METAR EPKK 271330Z 24003KT 9999 SCT040 05/M01 Q0996 =

METAR EPKT 271330Z 20005KT CAVOK 02/M01 Q0995 =

METAR EPLB 271330Z 25013KT 9999 SCT018 BKN021 03/02 Q0997 =

METAR EPLL 271330Z 22003KT 120V250 8000 OVC005 00/M01 Q0996 =

METAR EPML 271330Z AUTO 20004KT 150V230 9999 BKN028/// 05/00 Q0997=

METAR EPMO 271330Z 22010KT 6000 OVC006 01/01 Q0995 =

METAR EPPO 271330Z 13010KT 5000 BR BKN005 01/M00 Q0995 =

METAR EPRA 271330Z NIL=

METAR EPRZ 271330Z 19004KT 9999 OVC014 04/01 Q0997 =

METAR EPSC 271330Z 10006KT CAVOK 03/00 Q0993 =

METAR EPSY 271330Z 27004KT 9999 OVC013 01/01 Q0994=

METAR EPWA 271330Z 26008KT 9999 SCT011 BKN023 02/01 Q0995 TEMPO
BKN009=

METAR EPWR 271330Z 13011KT CAVOK 03/M00 Q0995 =

METAR EPZG 271330Z 12004KT CAVOK 04/01 Q0994 =
 METAR EPGD
Lokalizacja:EPGD Gdańsk Lech Wałęsa
Czas:13:30 UTC
Średni kierunek wiatru:290 °
Średnia prędkość wiatru:5 węzłów
Widzialność:7 kilometrów
Pierwsza warstwa chmur:5/8 do 7/8, wysokość podstawy 500 FT
Temperatura powietrza:2 °C
Temperatura punktu rosy:1 °C
Ciśnienie QNH:994 hPa



Serwisy IMGW-PIB